createdAt,value
2018-05-26T00:01:40.475Z,7.43
2018-05-26T00:04:13.869Z,8.10
2018-05-26T00:06:46.589Z,6.67
2018-05-26T00:09:19.001Z,11.37
2018-05-26T00:11:51.462Z,9.07
2018-05-26T00:14:24.774Z,7.83
2018-05-26T00:16:57.450Z,8.97
2018-05-26T00:19:30.590Z,10.07
2018-05-26T00:22:04.188Z,12.57
2018-05-26T00:24:37.898Z,9.07
2018-05-26T00:27:10.442Z,9.30
2018-05-26T00:29:42.980Z,8.90
2018-05-26T00:32:16.153Z,9.20
2018-05-26T00:34:48.917Z,11.23
2018-05-26T00:37:22.262Z,8.17
2018-05-26T00:39:55.776Z,7.57
2018-05-26T00:42:28.509Z,7.67
2018-05-26T00:45:01.918Z,7.60
2018-05-26T00:47:34.573Z,9.17
2018-05-26T00:50:07.853Z,8.43
2018-05-26T00:52:41.263Z,10.17
2018-05-26T00:55:14.583Z,12.30
2018-05-26T00:57:47.426Z,7.60
2018-05-26T01:00:20.411Z,7.63
2018-05-26T01:02:53.928Z,9.60
2018-05-26T01:05:27.439Z,9.37
2018-05-26T01:08:01.144Z,10.60
2018-05-26T01:10:34.563Z,7.30
2018-05-26T01:13:07.760Z,9.30
2018-05-26T01:15:42.061Z,9.00
2018-05-26T01:18:14.465Z,8.97
2018-05-26T01:20:47.082Z,8.23
2018-05-26T01:23:20.290Z,9.20
2018-05-26T01:25:53.301Z,7.90
2018-05-26T01:28:27.451Z,9.63
2018-05-26T01:31:00.565Z,9.23
2018-05-26T01:33:34.721Z,7.90
2018-05-26T01:36:08.239Z,9.73
2018-05-26T01:38:41.819Z,7.37
2018-05-26T01:41:14.778Z,10.27
2018-05-26T01:43:48.198Z,8.70
2018-05-26T01:46:20.614Z,9.63
2018-05-26T01:48:53.336Z,10.53
2018-05-26T01:51:25.939Z,10.50
2018-05-26T01:53:59.123Z,9.80
2018-05-26T01:56:31.839Z,8.80
2018-05-26T01:59:04.408Z,7.30
2018-05-26T02:01:37.950Z,7.33
2018-05-26T02:04:10.611Z,7.70
2018-05-26T02:06:44.599Z,11.30
2018-05-26T02:09:17.725Z,8.03
2018-05-26T02:11:51.180Z,8.60
2018-05-26T02:14:24.349Z,7.40
2018-05-26T02:16:59.203Z,7.20
2018-05-26T02:19:32.511Z,8.93
2018-05-26T02:22:05.383Z,10.03
2018-05-26T02:24:38.539Z,8.93
2018-05-26T02:27:11.374Z,8.27
2018-05-26T02:29:43.956Z,8.77
2018-05-26T02:32:26.755Z,7.17
2018-05-26T02:35:00.157Z,9.60
2018-05-26T02:37:33.318Z,12.80
2018-05-26T02:40:06.561Z,10.73
2018-05-26T02:42:39.648Z,11.57
2018-05-26T02:45:12.266Z,11.47
2018-05-26T02:47:45.624Z,15.97
2018-05-26T02:50:18.615Z,8.93
2018-05-26T02:52:51.957Z,11.73
2018-05-26T02:55:25.482Z,10.13
2018-05-26T02:57:57.909Z,8.37
2018-05-26T03:00:31.405Z,13.00
2018-05-26T03:03:03.868Z,10.77
2018-05-26T03:05:42.569Z,10.00
2018-05-26T03:08:21.359Z,11.30
2018-05-26T03:10:59.953Z,8.37
2018-05-26T03:13:39.488Z,10.00
2018-05-26T03:16:15.206Z,11.90
2018-05-26T03:18:49.575Z,13.83
2018-05-26T03:21:22.449Z,13.63
2018-05-26T03:23:54.819Z,10.73
2018-05-26T03:26:28.689Z,12.17
2018-05-26T03:29:02.893Z,12.20
2018-05-26T03:31:37.445Z,9.60
2018-05-26T03:34:09.847Z,10.93
2018-05-26T03:36:42.264Z,11.47
2018-05-26T03:39:14.819Z,10.73
2018-05-26T03:41:47.544Z,10.87
2018-05-26T03:44:21.559Z,8.83
2018-05-26T03:46:54.568Z,10.43
2018-05-26T03:49:27.884Z,11.97
2018-05-26T03:52:00.892Z,10.27
2018-05-26T03:54:52.116Z,10.97
2018-05-26T03:57:44.211Z,13.30
2018-05-26T04:00:17.126Z,10.90
2018-05-26T04:02:49.758Z,13.30
2018-05-26T04:05:23.345Z,10.43
2018-05-26T04:07:56.279Z,11.43
2018-05-26T04:10:29.543Z,14.47
2018-05-26T04:13:03.325Z,11.00
2018-05-26T04:15:37.093Z,10.37
2018-05-26T04:18:09.643Z,10.40
2018-05-26T04:20:43.715Z,14.00
2018-05-26T04:23:17.508Z,14.83
2018-05-26T04:25:50.041Z,12.83
2018-05-26T04:28:23.429Z,13.93
2018-05-26T04:30:57.371Z,14.57
2018-05-26T04:33:30.413Z,14.57
2018-05-26T04:36:03.805Z,11.60
2018-05-26T04:38:36.607Z,14.27
2018-05-26T04:41:10.002Z,12.00
2018-05-26T04:43:42.578Z,12.83
2018-05-26T04:46:15.891Z,19.63
2018-05-26T04:48:48.672Z,18.63
2018-05-26T04:51:21.780Z,13.50
2018-05-26T04:53:54.914Z,19.00
2018-05-26T04:56:27.809Z,20.90
2018-05-26T04:59:00.447Z,14.60
2018-05-26T05:01:32.920Z,21.23
2018-05-26T05:04:05.535Z,16.37
2018-05-26T05:06:38.573Z,19.67
2018-05-26T05:09:11.308Z,14.83
2018-05-26T05:11:44.283Z,18.23
2018-05-26T05:14:17.174Z,17.40
2018-05-26T05:16:49.778Z,21.07
2018-05-26T05:19:22.781Z,18.10
2018-05-26T05:21:55.443Z,16.87
2018-05-26T05:24:28.327Z,18.73
2018-05-26T05:27:00.914Z,13.93
2018-05-26T05:29:33.831Z,13.20
2018-05-26T05:32:06.719Z,14.90
2018-05-26T05:34:39.456Z,13.30
2018-05-26T05:37:12.646Z,10.03
2018-05-26T05:39:45.959Z,17.33
2018-05-26T05:42:19.273Z,8.83
2018-05-26T05:44:52.534Z,11.17
2018-05-26T05:47:25.798Z,13.67
2018-05-26T05:50:00.058Z,10.20
2018-05-26T05:52:33.215Z,10.70
2018-05-26T05:55:06.363Z,10.07
2018-05-26T05:57:38.918Z,7.60
2018-05-26T06:00:11.503Z,15.83
2018-05-26T06:02:45.491Z,9.23
2018-05-26T06:05:19.328Z,7.27
2018-05-26T06:07:51.804Z,10.23
2018-05-26T06:10:24.994Z,6.90
2018-05-26T06:12:57.681Z,7.50
2018-05-26T06:15:30.157Z,7.60
2018-05-26T06:18:03.283Z,12.53
2018-05-26T06:20:35.955Z,6.30
2018-05-26T06:23:09.054Z,6.40
2018-05-26T06:25:42.205Z,6.10
2018-05-26T06:28:16.125Z,5.90
2018-05-26T06:30:48.802Z,5.80
2018-05-26T06:33:21.294Z,5.10
2018-05-26T06:35:53.910Z,5.47
2018-05-26T06:38:26.428Z,5.80
2018-05-26T06:40:59.070Z,6.37
2018-05-26T06:43:32.957Z,5.20
2018-05-26T06:46:05.763Z,5.03
2018-05-26T06:48:38.258Z,5.27
2018-05-26T06:51:12.594Z,5.27
2018-05-26T06:53:45.466Z,5.00
2018-05-26T06:56:18.836Z,11.43
2018-05-26T06:58:51.690Z,9.50
2018-05-26T07:01:25.777Z,7.77
2018-05-26T07:03:59.445Z,7.53
2018-05-26T07:06:33.477Z,8.80
2018-05-26T07:09:06.346Z,7.73
2018-05-26T07:11:39.156Z,8.47
2018-05-26T07:14:12.399Z,7.80
2018-05-26T07:16:45.989Z,13.10
2018-05-26T07:19:19.369Z,9.60
2018-05-26T07:21:52.657Z,8.03
2018-05-26T07:24:25.679Z,8.83
2018-05-26T07:26:59.021Z,7.40
2018-05-26T07:29:32.138Z,9.33
2018-05-26T07:32:05.429Z,10.90
2018-05-26T07:34:38.216Z,8.60
2018-05-26T07:37:10.886Z,6.87
2018-05-26T07:39:44.184Z,9.17
2018-05-26T07:42:17.297Z,10.03
2018-05-26T07:44:51.027Z,9.80
2018-05-26T07:47:24.062Z,9.30
2018-05-26T07:49:57.138Z,9.53
2018-05-26T07:52:29.754Z,12.27
2018-05-26T07:55:02.886Z,10.93
2018-05-26T07:57:35.727Z,10.37
2018-05-26T08:00:08.535Z,10.77
2018-05-26T08:02:41.835Z,13.70
2018-05-26T08:05:15.218Z,17.93
2018-05-26T08:07:49.464Z,11.53
2018-05-26T08:10:23.249Z,9.80
2018-05-26T08:12:56.099Z,10.60
2018-05-26T08:15:29.953Z,13.53
2018-05-26T08:18:02.857Z,13.10
2018-05-26T08:20:35.283Z,10.53
2018-05-26T08:23:09.926Z,13.13
2018-05-26T08:25:42.944Z,13.60
2018-05-26T08:28:15.538Z,10.90
2018-05-26T08:30:48.158Z,9.67
2018-05-26T08:33:21.089Z,12.30
2018-05-26T08:35:54.298Z,10.60
2018-05-26T08:38:27.710Z,12.70
2018-05-26T08:41:00.688Z,10.80
2018-05-26T08:43:33.563Z,12.73
2018-05-26T08:46:06.716Z,9.87
2018-05-26T08:48:40.076Z,11.13
2018-05-26T08:51:12.798Z,10.47
2018-05-26T08:53:45.574Z,10.60
2018-05-26T08:56:19.722Z,11.03
2018-05-26T08:58:52.780Z,10.70
2018-05-26T09:01:25.366Z,9.77
2018-05-26T09:03:58.207Z,14.17
2018-05-26T09:06:30.779Z,13.73
2018-05-26T09:09:04.478Z,13.67
2018-05-26T09:11:37.024Z,8.83
2018-05-26T09:14:10.739Z,9.20
2018-05-26T09:16:43.398Z,14.73
2018-05-26T09:19:16.958Z,8.30
2018-05-26T09:21:49.513Z,8.10
2018-05-26T09:24:22.005Z,7.83
2018-05-26T09:26:54.414Z,9.20
2018-05-26T09:29:27.280Z,9.13
2018-05-26T09:32:01.268Z,8.30
2018-05-26T09:34:34.855Z,7.87
2018-05-26T09:37:07.783Z,7.10
2018-05-26T09:39:40.555Z,6.17
2018-05-26T09:42:13.069Z,7.67
2018-05-26T09:44:46.570Z,9.10
2018-05-26T09:47:20.337Z,7.83
2018-05-26T09:49:53.013Z,13.03
2018-05-26T09:52:25.920Z,6.70
2018-05-26T09:54:59.909Z,9.20
2018-05-26T09:57:32.547Z,7.27
2018-05-26T10:00:05.493Z,11.93
2018-05-26T10:02:38.103Z,7.23
2018-05-26T10:05:12.832Z,8.80
2018-05-26T10:07:46.830Z,11.30
2018-05-26T10:10:19.603Z,8.83
2018-05-26T10:12:53.408Z,13.10
2018-05-26T10:15:26.561Z,11.43
2018-05-26T10:17:59.275Z,8.37
2018-05-26T10:20:32.682Z,12.57
2018-05-26T10:23:06.647Z,7.70
2018-05-26T10:25:39.860Z,9.83
2018-05-26T10:28:12.314Z,16.80
2018-05-26T10:30:44.926Z,8.90
2018-05-26T10:33:17.407Z,15.90
2018-05-26T10:35:50.107Z,8.40
2018-05-26T10:38:22.859Z,11.00
2018-05-26T10:40:55.487Z,10.57
2018-05-26T10:43:29.967Z,11.43
2018-05-26T10:46:21.843Z,12.20
2018-05-26T10:48:55.305Z,10.33
2018-05-26T10:51:28.943Z,13.27
2018-05-26T10:54:02.287Z,13.43
2018-05-26T10:56:36.384Z,11.20
2018-05-26T10:59:09.065Z,8.10
2018-05-26T11:01:42.356Z,12.47
2018-05-26T11:04:15.562Z,14.43
2018-05-26T11:06:48.299Z,12.47
2018-05-26T11:09:21.153Z,12.67
2018-05-26T11:11:54.533Z,15.90
2018-05-26T11:14:27.117Z,14.93
2018-05-26T11:17:00.068Z,14.40
2018-05-26T11:19:32.582Z,13.43
2018-05-26T11:22:05.254Z,20.30
2018-05-26T11:24:39.151Z,8.80
2018-05-26T11:27:11.636Z,11.07
2018-05-26T11:29:45.848Z,11.23
2018-05-26T11:32:19.455Z,8.43
2018-05-26T11:34:53.140Z,11.27
2018-05-26T11:37:26.703Z,9.17
2018-05-26T11:39:59.109Z,12.53
2018-05-26T11:42:33.761Z,12.00
2018-05-26T11:45:07.122Z,9.60
2018-05-26T11:47:39.956Z,19.83
2018-05-26T11:50:13.127Z,12.80
2018-05-26T11:52:46.113Z,11.63
2018-05-26T11:55:20.325Z,10.47
2018-05-26T11:57:53.821Z,11.20
2018-05-26T12:00:26.533Z,8.70
2018-05-26T12:03:01.250Z,10.87
2018-05-26T12:05:33.775Z,8.10
2018-05-26T12:08:06.920Z,15.33
2018-05-26T12:10:41.295Z,10.70
2018-05-26T12:13:14.958Z,13.40
2018-05-26T12:15:49.793Z,13.70
2018-05-26T12:18:22.533Z,11.23
2018-05-26T12:20:55.553Z,7.93
2018-05-26T12:23:29.198Z,7.80
2018-05-26T12:26:02.619Z,12.80
2018-05-26T12:28:36.787Z,6.60
2018-05-26T12:31:09.930Z,7.67
2018-05-26T12:33:43.447Z,6.77
2018-05-26T12:36:16.743Z,9.03
2018-05-26T12:38:49.841Z,6.93
2018-05-26T12:41:22.268Z,5.10
2018-05-26T12:43:54.969Z,5.53
2018-05-26T12:46:28.192Z,9.17
2018-05-26T12:49:01.663Z,8.40
2018-05-26T12:51:34.976Z,7.07
2018-05-26T12:54:07.999Z,6.27
2018-05-26T12:56:41.309Z,10.20
2018-05-26T12:59:14.674Z,5.60
2018-05-26T13:01:48.890Z,4.77
2018-05-26T13:04:22.446Z,5.17
2018-05-26T13:06:55.743Z,4.97
2018-05-26T13:09:29.401Z,5.00
2018-05-26T13:12:02.026Z,5.27
2018-05-26T13:14:34.819Z,4.30
2018-05-26T13:17:08.092Z,4.30
2018-05-26T13:19:40.939Z,4.23
2018-05-26T13:22:14.910Z,5.67
2018-05-26T13:24:49.241Z,4.13
2018-05-26T13:27:21.848Z,5.50
2018-05-26T13:29:55.757Z,3.73
2018-05-26T13:32:28.229Z,4.57
2018-05-26T13:35:01.250Z,3.33
2018-05-26T13:37:33.897Z,4.33
2018-05-26T13:40:07.285Z,7.60
2018-05-26T13:42:39.712Z,3.23
2018-05-26T13:45:12.601Z,4.00
2018-05-26T13:47:45.469Z,5.10
2018-05-26T13:50:19.538Z,3.97
2018-05-26T13:52:52.321Z,3.00
2018-05-26T13:55:25.442Z,3.70
2018-05-26T13:57:58.653Z,6.33
2018-05-26T14:00:32.373Z,3.90
2018-05-26T14:03:05.215Z,3.40
2018-05-26T14:05:37.863Z,5.17
2018-05-26T14:08:11.194Z,3.37
2018-05-26T14:10:44.773Z,10.90
2018-05-26T14:13:18.021Z,3.93
2018-05-26T14:15:50.861Z,3.33
2018-05-26T14:18:24.136Z,3.27
2018-05-26T14:20:56.764Z,3.10
2018-05-26T14:23:29.489Z,2.67
2018-05-26T14:26:02.194Z,4.17
2018-05-26T14:28:35.639Z,3.10
2018-05-26T14:31:08.124Z,3.20
2018-05-26T14:33:40.786Z,3.13
2018-05-26T14:36:14.572Z,5.33
2018-05-26T14:38:48.554Z,3.27
2018-05-26T14:41:22.696Z,7.47
2018-05-26T14:43:56.500Z,5.00
2018-05-26T14:46:29.748Z,7.60
2018-05-26T14:49:03.089Z,5.70
2018-05-26T14:51:36.222Z,17.00
2018-05-26T14:54:09.467Z,8.83
2018-05-26T14:56:42.848Z,3.50
2018-05-26T14:59:16.091Z,6.90
2018-05-26T15:01:49.484Z,3.13
2018-05-26T15:04:22.898Z,2.50
2018-05-26T15:06:56.351Z,3.70
2018-05-26T15:09:28.838Z,2.80
2018-05-26T15:12:02.760Z,7.43
2018-05-26T15:14:35.761Z,4.10
2018-05-26T15:17:09.414Z,3.33
2018-05-26T15:19:41.872Z,2.77
2018-05-26T15:22:14.596Z,11.80
2018-05-26T15:24:47.012Z,7.30
2018-05-26T15:27:20.675Z,4.07
2018-05-26T15:29:54.058Z,2.77
2018-05-26T15:32:26.949Z,2.37
2018-05-26T15:34:59.668Z,2.50
2018-05-26T15:37:32.044Z,3.83
2018-05-26T15:40:05.982Z,3.17
2018-05-26T15:42:39.091Z,2.03
2018-05-26T15:45:12.261Z,2.17
2018-05-26T15:47:45.722Z,3.50
2018-05-26T15:50:18.699Z,2.90
2018-05-26T15:52:51.302Z,4.20
2018-05-26T15:55:24.156Z,2.20
2018-05-26T15:57:56.916Z,3.00
2018-05-26T16:00:30.840Z,8.73
2018-05-26T16:03:04.658Z,4.67
2018-05-26T16:05:37.653Z,13.57
2018-05-26T16:08:11.213Z,5.50
2018-05-26T16:10:44.172Z,3.90
2018-05-26T16:13:17.469Z,3.43
2018-05-26T16:15:50.365Z,2.60
2018-05-26T16:18:23.486Z,2.70
2018-05-26T16:20:56.323Z,2.90
2018-05-26T16:23:30.489Z,3.43
2018-05-26T16:26:03.153Z,4.20
2018-05-26T16:28:36.532Z,5.87
2018-05-26T16:31:09.074Z,3.10
2018-05-26T16:33:41.659Z,2.40
2018-05-26T16:36:14.941Z,2.83
2018-05-26T16:38:48.463Z,5.23
2018-05-26T16:41:21.749Z,5.00
2018-05-26T16:43:54.388Z,2.60
2018-05-26T16:46:27.612Z,2.97
2018-05-26T16:49:00.369Z,3.77
2018-05-26T16:51:33.476Z,2.83
2018-05-26T16:54:06.372Z,2.70
2018-05-26T16:56:39.409Z,3.80
2018-05-26T16:59:12.183Z,6.73
2018-05-26T17:01:45.147Z,2.97
2018-05-26T17:04:18.571Z,2.70
2018-05-26T17:06:51.998Z,3.03
2018-05-26T17:09:27.100Z,3.27
2018-05-26T17:12:00.096Z,2.90
2018-05-26T17:14:33.630Z,2.37
2018-05-26T17:17:06.235Z,2.90
2018-05-26T17:19:39.883Z,2.70
2018-05-26T17:22:13.183Z,3.93
2018-05-26T17:24:46.451Z,4.00
2018-05-26T17:27:19.876Z,3.27
2018-05-26T17:29:54.241Z,3.40
2018-05-26T17:32:26.916Z,4.80
2018-05-26T17:35:00.567Z,3.10
2018-05-26T17:37:34.190Z,2.93
2018-05-26T17:40:07.163Z,3.20
2018-05-26T17:42:40.029Z,7.53
2018-05-26T17:45:14.209Z,7.03
2018-05-26T17:47:47.440Z,3.70
2018-05-26T17:50:21.506Z,4.03
2018-05-26T17:52:54.990Z,3.60
2018-05-26T17:55:27.885Z,3.33
2018-05-26T17:58:00.571Z,3.40
2018-05-26T18:00:33.942Z,4.27
2018-05-26T18:03:07.307Z,4.20
2018-05-26T18:05:40.020Z,3.20
2018-05-26T18:08:13.072Z,3.60
2018-05-26T18:10:45.611Z,4.03
2018-05-26T18:13:18.009Z,5.80
2018-05-26T18:15:50.636Z,3.53
2018-05-26T18:18:23.975Z,4.83
2018-05-26T18:20:56.505Z,4.20
2018-05-26T18:23:29.962Z,5.70
2018-05-26T18:26:03.598Z,5.60
2018-05-26T18:28:36.858Z,5.60
2018-05-26T18:31:10.471Z,4.17
2018-05-26T18:33:43.748Z,4.30
2018-05-26T18:36:16.409Z,5.63
2018-05-26T18:38:49.579Z,6.27
2018-05-26T18:41:22.876Z,3.60
2018-05-26T18:43:55.721Z,4.67
2018-05-26T18:46:28.450Z,3.87
2018-05-26T18:49:00.910Z,4.77
2018-05-26T18:51:34.337Z,5.33
2018-05-26T18:54:08.301Z,5.17
2018-05-26T18:56:41.657Z,5.13
2018-05-26T18:59:14.502Z,10.77
2018-05-26T19:01:47.837Z,4.90
2018-05-26T19:04:21.067Z,6.07
2018-05-26T19:06:54.066Z,5.63
2018-05-26T19:09:28.050Z,6.00
2018-05-26T19:12:00.810Z,7.00
2018-05-26T19:14:34.209Z,5.37
2018-05-26T19:17:06.767Z,7.10
2018-05-26T19:19:39.984Z,8.03
2018-05-26T19:22:12.996Z,9.77
2018-05-26T19:24:46.264Z,7.67
2018-05-26T19:27:18.956Z,5.70
2018-05-26T19:29:52.234Z,7.87
2018-05-26T19:32:25.617Z,7.30
2018-05-26T19:34:58.942Z,6.90
2018-05-26T19:37:31.819Z,9.50
2018-05-26T19:40:04.971Z,8.47
2018-05-26T19:42:38.406Z,8.30
2018-05-26T19:45:11.113Z,8.13
2018-05-26T19:47:43.544Z,7.20
2018-05-26T19:50:17.018Z,7.00
2018-05-26T19:52:50.686Z,5.20
2018-05-26T19:55:23.150Z,12.50
2018-05-26T19:57:55.693Z,7.00
2018-05-26T20:00:28.306Z,8.20
2018-05-26T20:03:01.481Z,10.13
2018-05-26T20:05:35.399Z,7.07
2018-05-26T20:08:08.685Z,6.67
2018-05-26T20:10:41.616Z,6.80
2018-05-26T20:13:14.726Z,6.03
2018-05-26T20:15:48.510Z,7.07
2018-05-26T20:18:21.676Z,7.50
2018-05-26T20:20:55.601Z,8.90
2018-05-26T20:23:28.481Z,6.63
2018-05-26T20:26:01.594Z,6.67
2018-05-26T20:28:34.335Z,8.20
2018-05-26T20:31:07.623Z,8.93
2018-05-26T20:33:40.420Z,9.87
2018-05-26T20:36:13.611Z,12.17
2018-05-26T20:38:46.246Z,8.83
2018-05-26T20:41:19.712Z,10.23
2018-05-26T20:43:52.362Z,12.37
2018-05-26T20:46:24.844Z,14.00
2018-05-26T20:48:58.837Z,13.10
2018-05-26T20:51:31.711Z,13.73
2018-05-26T20:54:04.550Z,12.00
2018-05-26T20:56:37.296Z,10.23
2018-05-26T20:59:09.995Z,15.33
2018-05-26T21:01:43.309Z,10.17
2018-05-26T21:04:16.899Z,9.93
2018-05-26T21:06:50.146Z,12.00
2018-05-26T21:09:23.269Z,12.47
2018-05-26T21:11:56.647Z,10.33
2018-05-26T21:14:29.421Z,12.27
2018-05-26T21:17:02.620Z,11.93
2018-05-26T21:19:36.141Z,10.97
2018-05-26T21:22:08.941Z,14.07
2018-05-26T21:24:41.445Z,11.70
2018-05-26T21:27:13.919Z,14.50
2018-05-26T21:29:46.919Z,16.07
2018-05-26T21:32:19.850Z,16.70
2018-05-26T21:34:52.261Z,14.90
2018-05-26T21:37:25.439Z,15.47
2018-05-26T21:39:57.850Z,15.20
2018-05-26T21:42:30.401Z,17.33
2018-05-26T21:45:03.054Z,17.30
2018-05-26T21:47:36.640Z,14.60
2018-05-26T21:50:10.046Z,15.90
2018-05-26T21:52:54.002Z,13.97
2018-05-26T21:55:26.626Z,16.33
2018-05-26T21:57:59.633Z,11.93
2018-05-26T22:00:32.472Z,13.20
2018-05-26T22:03:04.946Z,12.20
2018-05-26T22:05:38.748Z,15.40
2018-05-26T22:08:11.481Z,13.40
2018-05-26T22:10:44.603Z,14.13
2018-05-26T22:13:17.267Z,14.97
2018-05-26T22:15:50.885Z,15.70
2018-05-26T22:18:23.556Z,16.30
2018-05-26T22:20:56.575Z,14.27
2018-05-26T22:23:29.778Z,18.60
2018-05-26T22:26:02.443Z,15.27
2018-05-26T22:28:35.803Z,17.47
2018-05-26T22:31:08.671Z,14.07
2018-05-26T22:33:42.029Z,18.70
2018-05-26T22:36:14.548Z,12.73
2018-05-26T22:38:47.032Z,13.87
2018-05-26T22:41:21.388Z,13.47
2018-05-26T22:43:55.390Z,12.80
2018-05-26T22:46:28.358Z,15.10
2018-05-26T22:49:01.450Z,16.20
2018-05-26T22:51:34.117Z,12.37
2018-05-26T22:54:07.336Z,14.40
2018-05-26T22:56:39.829Z,13.13
2018-05-26T22:59:12.457Z,11.60
2018-05-26T23:01:45.064Z,13.47
2018-05-26T23:04:17.603Z,17.00
2018-05-26T23:06:52.030Z,15.90
2018-05-26T23:09:24.772Z,13.80
2018-05-26T23:11:58.149Z,14.63
2018-05-26T23:14:30.551Z,12.27
2018-05-26T23:17:03.524Z,12.33
2018-05-26T23:19:36.028Z,15.87
2018-05-26T23:22:09.964Z,15.13
2018-05-26T23:24:43.098Z,13.90
2018-05-26T23:27:15.918Z,13.40
2018-05-26T23:29:48.577Z,14.67
2018-05-26T23:32:21.323Z,15.13
2018-05-26T23:34:54.048Z,13.27
2018-05-26T23:37:26.903Z,13.50
2018-05-26T23:40:00.229Z,15.20
2018-05-26T23:42:32.795Z,17.17
2018-05-26T23:45:06.129Z,13.10
2018-05-26T23:47:38.677Z,11.60
2018-05-26T23:50:10.999Z,15.07
2018-05-26T23:52:43.489Z,15.73
2018-05-26T23:55:16.702Z,15.30
2018-05-26T23:57:49.482Z,12.60
